| time (UTC) | temp C | wind direction | speed KPH | gust KPH | rain 1hr cm | rain 24hr cm | rain mn cm | humidity % | barometer mb |
| 20260505124624 | 8 | 25 | 4.8 | 11.3 | 0.00 | 0.00 | 0.00 | 59 | 1007.5 |
| 20260505123629 | 8 | 55 | 6.4 | 11.3 | 0.00 | 0.00 | 0.00 | 60 | 1007.5 |
| 20260505122637 | 8 | 38 | 8.0 | 14.5 | 0.00 | 0.00 | 0.00 | 60 | 1007.5 |
| 20260505121628 | 8 | 59 | 9.7 | 16.1 | 0.00 | 0.00 | 0.00 | 60 | 1007.5 |
| 20260505120632 | 9 | 50 | 4.8 | 8.0 | 0.00 | 0.00 | 0.00 | 59 | 1007.3 |
| 20260505115632 | 9 | 94 | 6.4 | 11.3 | 0.00 | 0.00 | 0.00 | 57 | 1007.1 |
| 20260505114619 | 10 | 91 | 4.8 | 9.7 | 0.00 | 0.00 | 0.00 | 56 | 1006.9 |
| 20260505113612 | 9 | 46 | 4.8 | 8.0 | 0.00 | 0.00 | 0.00 | 57 | 1006.9 |
| 20260505112621 | 8 | 30 | 3.2 | 6.4 | 0.00 | 0.00 | 0.00 | 59 | 1006.7 |
| 20260505111628 | 8 | 30 | 6.4 | 8.0 | 0.00 | 0.00 | 0.00 | 59 | 1006.6 |
| 20260505110616 | 7 | 28 | 8.0 | 12.9 | 0.00 | 0.00 | 0.00 | 60 | 1006.7 |
| 20260505101624 | 6 | 20 | 8.0 | 11.3 | 0.00 | 0.00 | 0.00 | 62 | 1006.7 |
| 20260505100613 | 7 | 5 | 4.8 | 6.4 | 0.00 | 0.00 | 0.00 | 62 | 1006.8 |
| 20260505095612 | 7 | 349 | 4.8 | 9.7 | 0.00 | 0.00 | 0.00 | 59 | 1006.8 |
| 20260505094620 | 8 | 360 | 4.8 | 9.7 | 0.00 | 0.00 | 0.00 | 60 | 1006.9 |
| 20260505093626 | 8 | 355 | 8.0 | 9.7 | 0.00 | 0.00 | 0.00 | 57 | 1006.7 |
| 20260505092615 | 9 | 328 | 8.0 | 14.5 | 0.00 | 0.00 | 0.00 | 56 | 1006.7 |
| 20260505091614 | 10 | 327 | 9.7 | 14.5 | 0.00 | 0.00 | 0.00 | 55 | 1006.7 |
| 20260505090641 | 10 | 318 | 8.0 | 14.5 | 0.00 | 0.00 | 0.00 | 55 | 1006.9 |
| 20260505085640 | 9 | 317 | 11.3 | 14.5 | 0.00 | 0.00 | 0.00 | 58 | 1007.0 |
| 20260505084627 | 8 | 327 | 9.7 | 14.5 | 0.00 | 0.00 | 0.00 | 60 | 1007.1 |
| 20260505083618 | 8 | 342 | 9.7 | 14.5 | 0.00 | 0.00 | 0.00 | 58 | 1007.0 |
| 20260505082629 | 7 | 336 | 9.7 | 12.9 | 0.00 | 0.00 | 0.00 | 59 | 1007.0 |
| 20260505081618 | 7 | 355 | 8.0 | 9.7 | 0.00 | 0.00 | 0.00 | 62 | 1007.0 |
| 20260505080612 | 7 | 5 | 6.4 | 9.7 | 0.00 | 0.00 | 0.00 | 60 | 1007.1 |
| 20260505075628 | 8 | 5 | 8.0 | 9.7 | 0.00 | 0.00 | 0.00 | 56 | 1007.3 |
| 20260505074613 | 8 | 5 | 8.0 | 12.9 | 0.00 | 0.00 | 0.00 | 57 | 1007.4 |
| 20260505073640 | 8 | 355 | 9.7 | 12.9 | 0.00 | 0.00 | 0.00 | 55 | 1007.3 |
| 20260505072626 | 8 | 360 | 6.4 | 8.0 | 0.00 | 0.00 | 0.00 | 55 | 1007.4 |
| 20260505071616 | 9 | 343 | 8.0 | 12.9 | 0.00 | 0.00 | 0.00 | 53 | 1007.4 |
| 20260505070624 | 10 | 347 | 6.4 | 9.7 | 0.00 | 0.00 | 0.00 | 50 | 1007.5 |
| 20260505065618 | 11 | 322 | 8.0 | 9.7 | 0.00 | 0.00 | 0.00 | 50 | 1007.5 |
| 20260505064626 | 11 | 336 | 3.2 | 8.0 | 0.00 | 0.00 | 0.00 | 46 | 1007.5 |
| 20260505063652 | 12 | 360 | 1.6 | 8.0 | 0.00 | 0.00 | 0.00 | 44 | 1007.6 |
| 20260505062618 | 13 | 9 | 4.8 | 9.7 | 0.00 | 0.00 | 0.00 | 42 | 1007.5 |
| 20260505061620 | 13 | 84 | 3.2 | 12.9 | 0.00 | 0.00 | 0.00 | 41 | 1007.5 |
| 20260505060623 | 14 | 25 | 6.4 | 9.7 | 0.00 | 0.00 | 0.00 | 41 | 1007.5 |
| 20260505055619 | 14 | 41 | 4.8 | 12.9 | 0.00 | 0.00 | 0.00 | 40 | 1007.5 |
| 20260505054631 | 15 | 185 | 6.4 | 16.1 | 0.00 | 0.00 | 0.00 | 39 | 1007.3 |
| 20260505053619 | 15 | 155 | 9.7 | 29.0 | 0.00 | 0.00 | 0.00 | 36 | 1007.3 |
| 20260505052627 | 15 | 113 | 19.3 | 35.4 | 0.00 | 0.00 | 0.00 | 39 | 1007.9 |
| 20260505051631 | 16 | 161 | 8.0 | 14.5 | 0.00 | 0.00 | 0.00 | 37 | 1007.8 |
| 20260505050622 | 16 | 167 | 6.4 | 11.3 | 0.00 | 0.00 | 0.00 | 34 | 1007.9 |
| 20260505041631 | 16 | 21 | 12.9 | 32.2 | 0.00 | 0.00 | 0.00 | 30 | 1006.8 |
| 20260505040638 | 17 | 57 | 11.3 | 27.4 | 0.00 | 0.00 | 0.00 | 28 | 1006.6 |
| 20260505035618 | 17 | 35 | 19.3 | 29.0 | 0.00 | 0.00 | 0.00 | 29 | 1006.5 |
| 20260505034648 | 17 | 25 | 14.5 | 22.5 | 0.00 | 0.00 | 0.00 | 28 | 1006.4 |
| 20260505033614 | 17 | 360 | 9.7 | 19.3 | 0.00 | 0.00 | 0.00 | 28 | 1006.3 |
| 20260505032624 | 17 | 48 | 9.7 | 14.5 | 0.00 | 0.00 | 0.00 | 27 | 1006.2 |
| 20260505031615 | 17 | 26 | 8.0 | 19.3 | 0.00 | 0.00 | 0.00 | 27 | 1006.2 |
| 20260505030622 | 17 | 56 | 8.0 | 16.1 | 0.00 | 0.00 | 0.00 | 29 | 1006.0 |
| 20260505025622 | 17 | 57 | 6.4 | 17.7 | 0.00 | 0.00 | 0.00 | 29 | 1006.0 |
| 20260505024628 | 17 | 71 | 6.4 | 17.7 | 0.00 | 0.00 | 0.00 | 30 | 1006.0 |
| 20260505023612 | 17 | 55 | 14.5 | 20.9 | 0.00 | 0.00 | 0.00 | 30 | 1005.8 |
| 20260505022619 | 17 | 52 | 12.9 | 19.3 | 0.00 | 0.00 | 0.00 | 30 | 1005.6 |
| 20260505021633 | 17 | 45 | 8.0 | 14.5 | 0.00 | 0.00 | 0.00 | 30 | 1005.5 |
| 20260505020622 | 18 | 76 | 4.8 | 16.1 | 0.00 | 0.00 | 0.00 | 28 | 1005.5 |
| 20260505015616 | 18 | 75 | 4.8 | 9.7 | 0.00 | 0.00 | 0.00 | 27 | 1005.4 |
| 20260505014618 | 18 | 104 | 4.8 | 9.7 | 0.00 | 0.00 | 0.00 | 27 | 1005.4 |
| 20260505013649 | 18 | 104 | 6.4 | 11.3 | 0.00 | 0.00 | 0.00 | 27 | 1005.4 |
| 20260505012632 | 18 | 124 | 8.0 | 14.5 | 0.00 | 0.00 | 0.00 | 25 | 1005.4 |
| 20260505011639 | 19 | 119 | 9.7 | 20.9 | 0.00 | 0.00 | 0.00 | 25 | 1005.4 |
| 20260505010624 | 19 | 151 | 11.3 | 20.9 | 0.00 | 0.00 | 0.00 | 24 | 1005.5 |
| 20260505005625 | 20 | 152 | 14.5 | 19.3 | 0.00 | 0.00 | 0.00 | 23 | 1005.5 |
| 20260505004614 | 20 | 126 | 11.3 | 22.5 | 0.00 | 0.00 | 0.00 | 22 | 1005.5 |
| 20260505003619 | 20 | 93 | 4.8 | 16.1 | 0.00 | 0.00 | 0.00 | 20 | 1005.5 |
| 20260505002628 | 20 | 102 | 8.0 | 16.1 | 0.00 | 0.00 | 0.00 | 21 | 1005.5 |
| 20260505001638 | 20 | 105 | 8.0 | 16.1 | 0.00 | 0.00 | 0.00 | 20 | 1005.6 |
| 20260505000630 | 20 | 38 | 9.7 | 19.3 | 0.00 | 0.00 | 0.00 | 22 | 1005.6 |
| 20260504235627 | 20 | 63 | 14.5 | 30.6 | 0.00 | 0.00 | 0.00 | 22 | 1005.7 |
| 20260504234614 | 20 | 49 | 11.3 | 27.4 | 0.00 | 0.00 | 0.00 | 22 | 1005.7 |
| 20260504233622 | 19 | 51 | 24.1 | 37.0 | 0.00 | 0.00 | 0.00 | 24 | 1005.8 |
| 20260504232612 | 20 | 21 | 24.1 | 33.8 | 0.00 | 0.00 | 0.00 | 24 | 1005.6 |
| 20260504231619 | 20 | 333 | 12.9 | 16.1 | 0.00 | 0.00 | 0.00 | 20 | 1005.6 |
| 20260504230627 | 21 | 180 | 11.3 | 40.2 | 0.00 | 0.00 | 0.00 | 19 | 1005.7 |
| 20260504225616 | 22 | 169 | 20.9 | 30.6 | 0.00 | 0.00 | 0.00 | 19 | 1005.6 |
| 20260504224629 | 22 | 84 | 14.5 | 27.4 | 0.00 | 0.00 | 0.00 | 18 | 1005.6 |
| 20260504223616 | 21 | 190 | 6.4 | 29.0 | 0.00 | 0.00 | 0.00 | 19 | 1005.6 |
| 20260504222642 | 21 | 123 | 17.7 | 45.1 | 0.00 | 0.00 | 0.00 | 20 | 1005.8 |
| 20260504221644 | 22 | 202 | 11.3 | 27.4 | 0.00 | 0.00 | 0.00 | 18 | 1005.7 |
| 20260504220630 | 22 | 179 | 14.5 | 25.7 | 0.00 | 0.00 | 0.00 | 18 | 1005.8 |
| 20260504215652 | 22 | 213 | 11.3 | 20.9 | 0.00 | 0.00 | 0.00 | 18 | 1006.1 |
| 20260504214621 | 22 | 97 | 4.8 | 20.9 | 0.00 | 0.00 | 0.00 | 18 | 1006.2 |
| 20260504213631 | 22 | 331 | 9.7 | 16.1 | 0.00 | 0.00 | 0.00 | 18 | 1006.3 |
| 20260504212618 | 22 | 273 | 12.9 | 19.3 | 0.00 | 0.00 | 0.00 | 18 | 1006.5 |
| 20260504211630 | 22 | 264 | 9.7 | 16.1 | 0.00 | 0.00 | 0.00 | 17 | 1006.6 |
| 20260504210616 | 22 | 281 | 12.9 | 17.7 | 0.00 | 0.00 | 0.00 | 17 | 1006.6 |
| 20260504205629 | 20 | 311 | 6.4 | 16.1 | 0.00 | 0.00 | 0.00 | 19 | 1006.9 |
| 20260504204619 | 20 | 129 | 8.0 | 19.3 | 0.00 | 0.00 | 0.00 | 20 | 1006.9 |
| 20260504203613 | 20 | 213 | 8.0 | 16.1 | 0.00 | 0.00 | 0.00 | 20 | 1007.1 |
| 20260504202620 | 20 | 273 | 4.8 | 11.3 | 0.00 | 0.00 | 0.00 | 19 | 1007.1 |
| 20260504201627 | 21 | 56 | 6.4 | 20.9 | 0.00 | 0.00 | 0.00 | 19 | 1007.3 |
| 20260504200653 | 21 | 138 | 11.3 | 22.5 | 0.00 | 0.00 | 0.00 | 19 | 1007.5 |
| 20260504195650 | 21 | 53 | 17.7 | 30.6 | 0.00 | 0.00 | 0.00 | 19 | 1007.5 |
| 20260504194621 | 21 | 52 | 12.9 | 25.7 | 0.00 | 0.00 | 0.00 | 18 | 1007.6 |
| 20260504193630 | 21 | 148 | 9.7 | 20.9 | 0.00 | 0.00 | 0.00 | 21 | 1007.7 |
| 20260504192617 | 21 | 98 | 8.0 | 19.3 | 0.00 | 0.00 | 0.00 | 20 | 1007.8 |
| 20260504191644 | 21 | 104 | 3.2 | 16.1 | 0.00 | 0.00 | 0.00 | 19 | 1008.0 |
| 20260504190613 | 21 | 162 | 8.0 | 17.7 | 0.00 | 0.00 | 0.00 | 20 | 1008.2 |
| 20260504185635 | 21 | 148 | 14.5 | 19.3 | 0.00 | 0.00 | 0.00 | 21 | 1008.2 |
| 20260504184624 | 21 | 117 | 14.5 | 20.9 | 0.00 | 0.00 | 0.00 | 21 | 1008.4 |
| 20260504183650 | 21 | 188 | 4.8 | 9.7 | 0.00 | 0.00 | 0.00 | 21 | 1008.5 |
| 20260504182622 | 20 | 91 | 11.3 | 17.7 | 0.00 | 0.00 | 0.00 | 22 | 1008.7 |
| 20260504181613 | 20 | 102 | 4.8 | 16.1 | 0.00 | 0.00 | 0.00 | 23 | 1008.8 |
| 20260504180641 | 20 | 77 | 4.8 | 12.9 | 0.00 | 0.00 | 0.00 | 24 | 1008.9 |
| 20260504175617 | 20 | 111 | 8.0 | 14.5 | 0.00 | 0.00 | 0.00 | 25 | 1009.0 |
| 20260504174622 | 20 | 188 | 9.7 | 12.9 | 0.00 | 0.00 | 0.00 | 25 | 1009.1 |
| 20260504173627 | 19 | 321 | 3.2 | 14.5 | 0.00 | 0.00 | 0.00 | 26 | 1009.1 |
| 20260504172618 | 18 | 225 | 8.0 | 16.1 | 0.00 | 0.00 | 0.00 | 26 | 1009.2 |
| 20260504171627 | 18 | 84 | 3.2 | 12.9 | 0.00 | 0.00 | 0.00 | 27 | 1009.2 |
| 20260504170612 | 18 | 209 | 3.2 | 12.9 | 0.00 | 0.00 | 0.00 | 27 | 1009.3 |
| 20260504150626 | 16 | 176 | 12.9 | 19.3 | 0.00 | 0.00 | 0.00 | 33 | 1009.4 |
| 20260504140618 | 15 | 284 | 3.2 | 6.4 | 0.00 | 0.00 | 0.00 | 26 | 1009.1 |